sensor_id;sensor_type;location;lat;lon;timestamp;P1;durP1;ratioP1;P2;durP2;ratioP2
17175;SDS011;8703;48.996;9.594;2023-02-16T00:01:21;13.13;;;7.03;;
17175;SDS011;8703;48.996;9.594;2023-02-16T00:03:50;12.20;;;6.20;;
17175;SDS011;8703;48.996;9.594;2023-02-16T00:06:19;12.10;;;6.47;;
17175;SDS011;8703;48.996;9.594;2023-02-16T00:08:47;11.73;;;6.00;;
17175;SDS011;8703;48.996;9.594;2023-02-16T00:11:18;11.13;;;5.40;;
17175;SDS011;8703;48.996;9.594;2023-02-16T00:14:06;9.80;;;5.57;;
17175;SDS011;8703;48.996;9.594;2023-02-16T00:16:34;11.27;;;5.63;;
17175;SDS011;8703;48.996;9.594;2023-02-16T00:19:07;8.80;;;4.90;;
17175;SDS011;8703;48.996;9.594;2023-02-16T00:21:42;8.87;;;5.17;;
17175;SDS011;8703;48.996;9.594;2023-02-16T00:24:10;8.97;;;5.00;;
17175;SDS011;8703;48.996;9.594;2023-02-16T00:26:39;14.07;;;6.63;;
17175;SDS011;8703;48.996;9.594;2023-02-16T00:29:09;11.13;;;5.37;;
17175;SDS011;8703;48.996;9.594;2023-02-16T00:31:39;9.23;;;5.03;;
17175;SDS011;8703;48.996;9.594;2023-02-16T00:34:25;10.50;;;5.90;;
17175;SDS011;8703;48.996;9.594;2023-02-16T00:36:54;10.87;;;5.37;;
17175;SDS011;8703;48.996;9.594;2023-02-16T00:39:22;9.63;;;5.23;;
17175;SDS011;8703;48.996;9.594;2023-02-16T00:41:52;10.53;;;5.20;;
17175;SDS011;8703;48.996;9.594;2023-02-16T00:44:20;11.23;;;6.17;;
17175;SDS011;8703;48.996;9.594;2023-02-16T00:46:52;16.57;;;6.07;;
17175;SDS011;8703;48.996;9.594;2023-02-16T00:49:20;10.80;;;5.97;;
17175;SDS011;8703;48.996;9.594;2023-02-16T00:51:47;8.43;;;4.73;;
17175;SDS011;8703;48.996;9.594;2023-02-16T00:54:15;9.60;;;4.87;;
17175;SDS011;8703;48.996;9.594;2023-02-16T00:56:42;9.63;;;4.80;;
17175;SDS011;8703;48.996;9.594;2023-02-16T00:59:13;8.33;;;5.10;;
17175;SDS011;8703;48.996;9.594;2023-02-16T01:01:43;10.70;;;5.13;;
17175;SDS011;8703;48.996;9.594;2023-02-16T01:04:11;9.40;;;5.00;;
17175;SDS011;8703;48.996;9.594;2023-02-16T01:06:45;9.10;;;4.70;;
17175;SDS011;8703;48.996;9.594;2023-02-16T01:09:30;9.50;;;5.37;;
17175;SDS011;8703;48.996;9.594;2023-02-16T01:12:16;8.50;;;5.10;;
17175;SDS011;8703;48.996;9.594;2023-02-16T01:14:46;10.97;;;5.20;;
17175;SDS011;8703;48.996;9.594;2023-02-16T01:17:16;8.97;;;5.17;;
17175;SDS011;8703;48.996;9.594;2023-02-16T01:19:44;10.63;;;5.17;;
17175;SDS011;8703;48.996;9.594;2023-02-16T01:22:11;9.10;;;4.87;;
17175;SDS011;8703;48.996;9.594;2023-02-16T01:24:39;9.07;;;4.63;;
17175;SDS011;8703;48.996;9.594;2023-02-16T01:27:09;11.33;;;5.10;;
17175;SDS011;8703;48.996;9.594;2023-02-16T01:29:37;8.87;;;4.47;;
17175;SDS011;8703;48.996;9.594;2023-02-16T01:32:06;8.73;;;4.93;;
17175;SDS011;8703;48.996;9.594;2023-02-16T01:34:35;10.70;;;5.10;;
17175;SDS011;8703;48.996;9.594;2023-02-16T01:37:02;9.47;;;5.10;;
17175;SDS011;8703;48.996;9.594;2023-02-16T01:39:30;7.73;;;5.00;;
17175;SDS011;8703;48.996;9.594;2023-02-16T01:44:50;12.23;;;6.43;;
17175;SDS011;8703;48.996;9.594;2023-02-16T01:47:25;10.00;;;5.50;;
17175;SDS011;8703;48.996;9.594;2023-02-16T01:50:00;9.23;;;5.23;;
17175;SDS011;8703;48.996;9.594;2023-02-16T01:52:33;10.10;;;5.37;;
17175;SDS011;8703;48.996;9.594;2023-02-16T01:55:04;10.30;;;5.47;;
17175;SDS011;8703;48.996;9.594;2023-02-16T01:57:37;10.73;;;4.93;;
17175;SDS011;8703;48.996;9.594;2023-02-16T02:00:08;15.37;;;6.60;;
17175;SDS011;8703;48.996;9.594;2023-02-16T02:02:43;10.93;;;5.70;;
17175;SDS011;8703;48.996;9.594;2023-02-16T02:05:17;14.93;;;6.40;;
17175;SDS011;8703;48.996;9.594;2023-02-16T02:08:02;12.07;;;5.27;;
17175;SDS011;8703;48.996;9.594;2023-02-16T02:10:48;11.10;;;5.40;;
17175;SDS011;8703;48.996;9.594;2023-02-16T02:13:22;11.27;;;5.70;;
17175;SDS011;8703;48.996;9.594;2023-02-16T02:15:52;9.43;;;5.17;;
17175;SDS011;8703;48.996;9.594;2023-02-16T02:18:21;10.27;;;4.87;;
17175;SDS011;8703;48.996;9.594;2023-02-16T02:20:51;10.77;;;5.43;;
17175;SDS011;8703;48.996;9.594;2023-02-16T02:23:50;9.33;;;4.53;;
17175;SDS011;8703;48.996;9.594;2023-02-16T02:29:33;9.10;;;4.73;;
17175;SDS011;8703;48.996;9.594;2023-02-16T02:32:17;7.70;;;4.40;;
17175;SDS011;8703;48.996;9.594;2023-02-16T02:34:57;9.87;;;4.53;;
17175;SDS011;8703;48.996;9.594;2023-02-16T02:37:29;11.00;;;5.10;;
17175;SDS011;8703;48.996;9.594;2023-02-16T02:40:05;8.83;;;4.87;;
17175;SDS011;8703;48.996;9.594;2023-02-16T02:42:37;6.03;;;4.33;;
17175;SDS011;8703;48.996;9.594;2023-02-16T02:45:12;7.00;;;3.90;;
17175;SDS011;8703;48.996;9.594;2023-02-16T02:47:44;7.07;;;3.80;;
17175;SDS011;8703;48.996;9.594;2023-02-16T02:50:33;7.10;;;4.03;;
17175;SDS011;8703;48.996;9.594;2023-02-16T02:53:05;8.40;;;4.37;;
17175;SDS011;8703;48.996;9.594;2023-02-16T02:55:35;8.33;;;4.63;;
17175;SDS011;8703;48.996;9.594;2023-02-16T02:58:23;7.17;;;4.27;;
17175;SDS011;8703;48.996;9.594;2023-02-16T03:01:25;6.30;;;4.27;;
17175;SDS011;8703;48.996;9.594;2023-02-16T03:03:53;8.93;;;4.80;;
17175;SDS011;8703;48.996;9.594;2023-02-16T03:06:24;8.60;;;4.77;;
17175;SDS011;8703;48.996;9.594;2023-02-16T03:08:54;9.30;;;5.10;;
17175;SDS011;8703;48.996;9.594;2023-02-16T03:11:26;10.50;;;4.73;;
17175;SDS011;8703;48.996;9.594;2023-02-16T03:14:13;8.27;;;4.20;;
17175;SDS011;8703;48.996;9.594;2023-02-16T03:16:43;8.13;;;4.40;;
17175;SDS011;8703;48.996;9.594;2023-02-16T03:19:12;8.70;;;4.50;;
17175;SDS011;8703;48.996;9.594;2023-02-16T03:21:59;9.30;;;5.00;;
17175;SDS011;8703;48.996;9.594;2023-02-16T03:24:45;7.33;;;4.40;;
17175;SDS011;8703;48.996;9.594;2023-02-16T03:27:31;7.27;;;4.70;;
17175;SDS011;8703;48.996;9.594;2023-02-16T03:30:18;8.33;;;4.60;;
17175;SDS011;8703;48.996;9.594;2023-02-16T03:32:47;7.60;;;4.43;;
17175;SDS011;8703;48.996;9.594;2023-02-16T03:35:14;8.23;;;4.47;;
17175;SDS011;8703;48.996;9.594;2023-02-16T03:37:42;8.57;;;4.73;;
17175;SDS011;8703;48.996;9.594;2023-02-16T03:40:11;8.97;;;4.50;;
17175;SDS011;8703;48.996;9.594;2023-02-16T03:42:57;9.20;;;5.00;;
17175;SDS011;8703;48.996;9.594;2023-02-16T03:45:26;9.03;;;4.23;;
17175;SDS011;8703;48.996;9.594;2023-02-16T03:47:55;7.00;;;4.37;;
17175;SDS011;8703;48.996;9.594;2023-02-16T03:50:23;8.43;;;4.53;;
17175;SDS011;8703;48.996;9.594;2023-02-16T03:52:51;10.00;;;4.70;;
17175;SDS011;8703;48.996;9.594;2023-02-16T03:55:30;9.73;;;4.80;;
17175;SDS011;8703;48.996;9.594;2023-02-16T03:57:58;7.53;;;4.57;;
17175;SDS011;8703;48.996;9.594;2023-02-16T04:00:26;7.97;;;4.73;;
17175;SDS011;8703;48.996;9.594;2023-02-16T04:02:53;7.43;;;4.30;;
17175;SDS011;8703;48.996;9.594;2023-02-16T04:05:22;9.77;;;4.70;;
17175;SDS011;8703;48.996;9.594;2023-02-16T04:07:49;9.50;;;4.93;;
17175;SDS011;8703;48.996;9.594;2023-02-16T04:10:17;8.57;;;4.67;;
17175;SDS011;8703;48.996;9.594;2023-02-16T04:12:45;8.53;;;4.63;;
17175;SDS011;8703;48.996;9.594;2023-02-16T04:15:13;9.37;;;4.73;;
17175;SDS011;8703;48.996;9.594;2023-02-16T04:17:41;10.83;;;5.10;;
17175;SDS011;8703;48.996;9.594;2023-02-16T04:20:12;10.13;;;6.20;;
17175;SDS011;8703;48.996;9.594;2023-02-16T04:22:41;11.17;;;6.37;;
17175;SDS011;8703;48.996;9.594;2023-02-16T04:25:09;13.80;;;6.87;;
17175;SDS011;8703;48.996;9.594;2023-02-16T04:27:37;10.23;;;5.30;;
17175;SDS011;8703;48.996;9.594;2023-02-16T04:30:05;9.30;;;5.33;;
17175;SDS011;8703;48.996;9.594;2023-02-16T04:32:34;8.53;;;4.97;;
17175;SDS011;8703;48.996;9.594;2023-02-16T04:35:01;7.50;;;4.57;;
17175;SDS011;8703;48.996;9.594;2023-02-16T04:37:30;9.00;;;5.30;;
17175;SDS011;8703;48.996;9.594;2023-02-16T04:39:58;10.03;;;5.27;;
17175;SDS011;8703;48.996;9.594;2023-02-16T04:42:25;10.17;;;5.10;;
17175;SDS011;8703;48.996;9.594;2023-02-16T04:44:52;9.73;;;6.10;;
17175;SDS011;8703;48.996;9.594;2023-02-16T04:47:20;12.60;;;6.63;;
17175;SDS011;8703;48.996;9.594;2023-02-16T04:49:50;11.73;;;6.03;;
17175;SDS011;8703;48.996;9.594;2023-02-16T04:52:18;9.97;;;5.50;;
17175;SDS011;8703;48.996;9.594;2023-02-16T04:54:47;9.20;;;5.47;;
17175;SDS011;8703;48.996;9.594;2023-02-16T04:57:15;10.63;;;5.23;;
17175;SDS011;8703;48.996;9.594;2023-02-16T04:59:43;10.57;;;5.00;;
17175;SDS011;8703;48.996;9.594;2023-02-16T05:02:10;10.07;;;5.17;;
17175;SDS011;8703;48.996;9.594;2023-02-16T05:04:38;8.93;;;5.27;;
17175;SDS011;8703;48.996;9.594;2023-02-16T05:07:06;8.83;;;5.13;;
17175;SDS011;8703;48.996;9.594;2023-02-16T05:09:33;8.40;;;4.77;;
17175;SDS011;8703;48.996;9.594;2023-02-16T05:12:02;8.77;;;4.80;;
17175;SDS011;8703;48.996;9.594;2023-02-16T05:14:47;12.97;;;5.67;;
17175;SDS011;8703;48.996;9.594;2023-02-16T05:17:16;12.03;;;6.20;;
17175;SDS011;8703;48.996;9.594;2023-02-16T05:19:45;10.30;;;5.60;;
17175;SDS011;8703;48.996;9.594;2023-02-16T05:22:13;9.20;;;5.13;;
17175;SDS011;8703;48.996;9.594;2023-02-16T05:24:41;8.23;;;5.10;;
17175;SDS011;8703;48.996;9.594;2023-02-16T05:27:12;9.47;;;5.50;;
17175;SDS011;8703;48.996;9.594;2023-02-16T05:29:40;10.87;;;5.80;;
17175;SDS011;8703;48.996;9.594;2023-02-16T05:32:08;10.63;;;5.60;;
17175;SDS011;8703;48.996;9.594;2023-02-16T05:34:35;11.60;;;5.60;;
17175;SDS011;8703;48.996;9.594;2023-02-16T05:37:03;9.70;;;5.60;;
17175;SDS011;8703;48.996;9.594;2023-02-16T05:39:31;9.70;;;5.37;;
17175;SDS011;8703;48.996;9.594;2023-02-16T05:41:58;10.23;;;5.47;;
17175;SDS011;8703;48.996;9.594;2023-02-16T05:44:31;8.67;;;4.90;;
17175;SDS011;8703;48.996;9.594;2023-02-16T05:47:01;9.63;;;5.00;;
17175;SDS011;8703;48.996;9.594;2023-02-16T05:49:32;9.60;;;5.33;;
17175;SDS011;8703;48.996;9.594;2023-02-16T05:51:59;9.40;;;5.50;;
17175;SDS011;8703;48.996;9.594;2023-02-16T05:54:27;37.97;;;15.07;;
17175;SDS011;8703;48.996;9.594;2023-02-16T05:56:54;115.60;;;43.67;;
17175;SDS011;8703;48.996;9.594;2023-02-16T05:59:21;33.57;;;15.97;;
17175;SDS011;8703;48.996;9.594;2023-02-16T06:01:50;27.77;;;13.57;;
17175;SDS011;8703;48.996;9.594;2023-02-16T06:04:18;23.77;;;10.97;;
17175;SDS011;8703;48.996;9.594;2023-02-16T06:06:49;24.97;;;12.10;;
17175;SDS011;8703;48.996;9.594;2023-02-16T06:09:16;14.80;;;7.03;;
17175;SDS011;8703;48.996;9.594;2023-02-16T06:11:43;13.17;;;7.17;;
17175;SDS011;8703;48.996;9.594;2023-02-16T06:14:12;12.87;;;5.80;;
17175;SDS011;8703;48.996;9.594;2023-02-16T06:16:41;12.40;;;6.50;;
17175;SDS011;8703;48.996;9.594;2023-02-16T06:19:11;11.23;;;6.77;;
17175;SDS011;8703;48.996;9.594;2023-02-16T06:21:39;12.37;;;6.17;;
17175;SDS011;8703;48.996;9.594;2023-02-16T06:24:07;11.83;;;6.30;;
17175;SDS011;8703;48.996;9.594;2023-02-16T06:26:36;12.43;;;6.40;;
17175;SDS011;8703;48.996;9.594;2023-02-16T06:29:04;10.63;;;5.93;;
17175;SDS011;8703;48.996;9.594;2023-02-16T06:31:32;13.37;;;7.30;;
17175;SDS011;8703;48.996;9.594;2023-02-16T06:33:59;21.00;;;13.53;;
17175;SDS011;8703;48.996;9.594;2023-02-16T06:36:29;20.03;;;13.10;;
17175;SDS011;8703;48.996;9.594;2023-02-16T06:38:56;15.73;;;8.77;;
17175;SDS011;8703;48.996;9.594;2023-02-16T06:41:24;13.97;;;7.20;;
17175;SDS011;8703;48.996;9.594;2023-02-16T06:44:00;11.83;;;6.50;;
17175;SDS011;8703;48.996;9.594;2023-02-16T06:46:28;12.50;;;7.83;;
17175;SDS011;8703;48.996;9.594;2023-02-16T06:48:55;14.00;;;8.10;;
17175;SDS011;8703;48.996;9.594;2023-02-16T06:51:23;16.77;;;9.40;;
17175;SDS011;8703;48.996;9.594;2023-02-16T06:53:52;14.20;;;8.20;;
17175;SDS011;8703;48.996;9.594;2023-02-16T06:56:20;16.30;;;8.90;;
17175;SDS011;8703;48.996;9.594;2023-02-16T06:58:48;13.77;;;8.23;;
17175;SDS011;8703;48.996;9.594;2023-02-16T07:01:15;14.60;;;8.00;;
17175;SDS011;8703;48.996;9.594;2023-02-16T07:03:46;12.73;;;7.53;;
17175;SDS011;8703;48.996;9.594;2023-02-16T07:06:15;13.60;;;7.17;;
17175;SDS011;8703;48.996;9.594;2023-02-16T07:08:42;11.20;;;6.90;;
17175;SDS011;8703;48.996;9.594;2023-02-16T07:11:12;17.63;;;8.20;;
17175;SDS011;8703;48.996;9.594;2023-02-16T07:13:41;14.17;;;8.10;;
17175;SDS011;8703;48.996;9.594;2023-02-16T07:16:08;13.70;;;8.00;;
17175;SDS011;8703;48.996;9.594;2023-02-16T07:18:36;15.60;;;8.80;;
17175;SDS011;8703;48.996;9.594;2023-02-16T07:21:04;15.03;;;7.93;;
17175;SDS011;8703;48.996;9.594;2023-02-16T07:23:32;19.10;;;7.17;;
17175;SDS011;8703;48.996;9.594;2023-02-16T07:25:59;15.67;;;8.20;;
17175;SDS011;8703;48.996;9.594;2023-02-16T07:28:28;14.33;;;7.53;;
17175;SDS011;8703;48.996;9.594;2023-02-16T07:30:55;14.93;;;8.63;;
17175;SDS011;8703;48.996;9.594;2023-02-16T07:33:23;13.60;;;7.23;;
17175;SDS011;8703;48.996;9.594;2023-02-16T07:35:50;15.47;;;7.87;;
17175;SDS011;8703;48.996;9.594;2023-02-16T07:38:18;17.73;;;8.03;;
17175;SDS011;8703;48.996;9.594;2023-02-16T07:40:45;14.70;;;7.10;;
17175;SDS011;8703;48.996;9.594;2023-02-16T07:43:13;13.80;;;7.13;;
17175;SDS011;8703;48.996;9.594;2023-02-16T07:45:41;13.93;;;7.03;;
17175;SDS011;8703;48.996;9.594;2023-02-16T07:48:09;14.40;;;6.90;;
17175;SDS011;8703;48.996;9.594;2023-02-16T07:50:37;17.97;;;7.73;;
17175;SDS011;8703;48.996;9.594;2023-02-16T07:53:05;18.17;;;7.87;;
17175;SDS011;8703;48.996;9.594;2023-02-16T07:55:32;14.37;;;7.57;;
17175;SDS011;8703;48.996;9.594;2023-02-16T07:58:03;21.13;;;11.40;;
17175;SDS011;8703;48.996;9.594;2023-02-16T08:00:30;28.60;;;14.97;;
17175;SDS011;8703;48.996;9.594;2023-02-16T08:02:59;22.33;;;11.60;;
17175;SDS011;8703;48.996;9.594;2023-02-16T08:05:27;17.73;;;8.40;;
17175;SDS011;8703;48.996;9.594;2023-02-16T08:07:54;16.23;;;9.23;;
17175;SDS011;8703;48.996;9.594;2023-02-16T08:10:21;16.50;;;9.00;;
17175;SDS011;8703;48.996;9.594;2023-02-16T08:12:49;14.17;;;7.80;;
17175;SDS011;8703;48.996;9.594;2023-02-16T08:15:16;17.53;;;9.57;;
17175;SDS011;8703;48.996;9.594;2023-02-16T08:17:44;18.50;;;10.57;;
17175;SDS011;8703;48.996;9.594;2023-02-16T08:20:13;27.10;;;12.30;;
17175;SDS011;8703;48.996;9.594;2023-02-16T08:22:41;27.43;;;13.17;;
17175;SDS011;8703;48.996;9.594;2023-02-16T08:25:08;29.00;;;13.63;;
17175;SDS011;8703;48.996;9.594;2023-02-16T08:27:36;22.67;;;12.60;;
17175;SDS011;8703;48.996;9.594;2023-02-16T08:30:03;23.43;;;11.93;;
17175;SDS011;8703;48.996;9.594;2023-02-16T08:32:36;21.43;;;10.70;;
17175;SDS011;8703;48.996;9.594;2023-02-16T08:35:04;28.00;;;12.70;;
17175;SDS011;8703;48.996;9.594;2023-02-16T08:37:33;26.27;;;14.40;;
17175;SDS011;8703;48.996;9.594;2023-02-16T08:40:03;24.37;;;12.00;;
17175;SDS011;8703;48.996;9.594;2023-02-16T08:42:31;23.40;;;12.63;;
17175;SDS011;8703;48.996;9.594;2023-02-16T08:44:58;21.53;;;12.10;;
17175;SDS011;8703;48.996;9.594;2023-02-16T08:47:25;20.33;;;11.57;;
17175;SDS011;8703;48.996;9.594;2023-02-16T08:49:53;19.50;;;10.67;;
17175;SDS011;8703;48.996;9.594;2023-02-16T08:52:21;19.17;;;10.43;;
17175;SDS011;8703;48.996;9.594;2023-02-16T08:54:50;22.17;;;11.73;;
17175;SDS011;8703;48.996;9.594;2023-02-16T08:57:18;21.27;;;12.13;;
17175;SDS011;8703;48.996;9.594;2023-02-16T08:59:45;22.93;;;12.67;;
17175;SDS011;8703;48.996;9.594;2023-02-16T09:02:32;28.83;;;13.17;;
17175;SDS011;8703;48.996;9.594;2023-02-16T09:05:00;25.67;;;12.87;;
17175;SDS011;8703;48.996;9.594;2023-02-16T09:07:27;25.53;;;13.10;;
17175;SDS011;8703;48.996;9.594;2023-02-16T09:10:00;26.63;;;13.27;;
17175;SDS011;8703;48.996;9.594;2023-02-16T09:12:28;25.17;;;12.83;;
17175;SDS011;8703;48.996;9.594;2023-02-16T09:14:57;22.27;;;12.33;;
17175;SDS011;8703;48.996;9.594;2023-02-16T09:17:24;22.37;;;11.63;;
17175;SDS011;8703;48.996;9.594;2023-02-16T09:19:53;25.43;;;12.30;;
17175;SDS011;8703;48.996;9.594;2023-02-16T09:22:20;25.57;;;13.77;;
17175;SDS011;8703;48.996;9.594;2023-02-16T09:24:47;32.67;;;16.47;;
17175;SDS011;8703;48.996;9.594;2023-02-16T09:27:17;31.23;;;15.17;;
17175;SDS011;8703;48.996;9.594;2023-02-16T09:29:44;22.90;;;13.10;;
17175;SDS011;8703;48.996;9.594;2023-02-16T09:32:11;24.13;;;13.27;;
17175;SDS011;8703;48.996;9.594;2023-02-16T09:34:39;23.30;;;12.07;;
17175;SDS011;8703;48.996;9.594;2023-02-16T09:37:08;24.23;;;11.87;;
17175;SDS011;8703;48.996;9.594;2023-02-16T09:39:35;23.17;;;11.17;;
17175;SDS011;8703;48.996;9.594;2023-02-16T09:42:05;21.57;;;11.47;;
17175;SDS011;8703;48.996;9.594;2023-02-16T09:44:45;20.37;;;11.13;;
17175;SDS011;8703;48.996;9.594;2023-02-16T09:47:18;20.87;;;11.33;;
17175;SDS011;8703;48.996;9.594;2023-02-16T09:49:48;18.97;;;11.57;;
17175;SDS011;8703;48.996;9.594;2023-02-16T09:52:18;20.93;;;11.87;;
17175;SDS011;8703;48.996;9.594;2023-02-16T09:54:49;20.17;;;11.37;;
17175;SDS011;8703;48.996;9.594;2023-02-16T09:57:20;19.80;;;11.10;;
17175;SDS011;8703;48.996;9.594;2023-02-16T09:59:54;17.90;;;11.33;;
17175;SDS011;8703;48.996;9.594;2023-02-16T10:02:28;22.90;;;12.17;;
17175;SDS011;8703;48.996;9.594;2023-02-16T10:05:11;19.80;;;11.33;;
17175;SDS011;8703;48.996;9.594;2023-02-16T10:07:47;19.83;;;10.73;;
17175;SDS011;8703;48.996;9.594;2023-02-16T10:10:22;20.43;;;11.37;;
17175;SDS011;8703;48.996;9.594;2023-02-16T10:12:52;22.47;;;12.10;;
17175;SDS011;8703;48.996;9.594;2023-02-16T10:15:23;18.27;;;12.23;;
17175;SDS011;8703;48.996;9.594;2023-02-16T10:17:53;21.37;;;12.13;;
17175;SDS011;8703;48.996;9.594;2023-02-16T10:20:27;19.43;;;11.73;;
17175;SDS011;8703;48.996;9.594;2023-02-16T10:22:59;23.67;;;14.00;;
17175;SDS011;8703;48.996;9.594;2023-02-16T10:25:33;21.93;;;13.57;;
17175;SDS011;8703;48.996;9.594;2023-02-16T10:28:06;25.73;;;14.23;;
17175;SDS011;8703;48.996;9.594;2023-02-16T10:30:42;23.97;;;13.33;;
17175;SDS011;8703;48.996;9.594;2023-02-16T10:33:15;27.40;;;14.83;;
17175;SDS011;8703;48.996;9.594;2023-02-16T10:35:47;25.93;;;14.50;;
17175;SDS011;8703;48.996;9.594;2023-02-16T10:38:17;19.83;;;12.60;;
17175;SDS011;8703;48.996;9.594;2023-02-16T10:40:51;18.73;;;11.60;;
17175;SDS011;8703;48.996;9.594;2023-02-16T10:43:23;22.23;;;12.40;;
17175;SDS011;8703;48.996;9.594;2023-02-16T10:45:57;20.53;;;11.40;;
17175;SDS011;8703;48.996;9.594;2023-02-16T10:48:27;17.87;;;10.03;;
17175;SDS011;8703;48.996;9.594;2023-02-16T10:50:56;21.73;;;11.30;;
17175;SDS011;8703;48.996;9.594;2023-02-16T10:53:30;20.47;;;10.60;;
17175;SDS011;8703;48.996;9.594;2023-02-16T10:56:01;16.00;;;8.73;;
17175;SDS011;8703;48.996;9.594;2023-02-16T10:58:55;13.53;;;8.33;;
17175;SDS011;8703;48.996;9.594;2023-02-16T11:01:27;14.70;;;8.63;;
17175;SDS011;8703;48.996;9.594;2023-02-16T11:04:00;13.93;;;7.80;;
17175;SDS011;8703;48.996;9.594;2023-02-16T11:06:27;12.90;;;8.00;;
17175;SDS011;8703;48.996;9.594;2023-02-16T11:08:55;13.33;;;7.70;;
17175;SDS011;8703;48.996;9.594;2023-02-16T11:11:25;11.83;;;7.70;;
17175;SDS011;8703;48.996;9.594;2023-02-16T11:13:56;12.83;;;7.50;;
17175;SDS011;8703;48.996;9.594;2023-02-16T11:16:26;12.27;;;7.60;;
17175;SDS011;8703;48.996;9.594;2023-02-16T11:18:55;11.87;;;7.23;;
17175;SDS011;8703;48.996;9.594;2023-02-16T11:24:08;11.60;;;6.60;;
17175;SDS011;8703;48.996;9.594;2023-02-16T11:26:37;10.83;;;6.67;;
17175;SDS011;8703;48.996;9.594;2023-02-16T11:29:05;11.50;;;6.90;;
17175;SDS011;8703;48.996;9.594;2023-02-16T11:31:46;11.93;;;6.80;;
17175;SDS011;8703;48.996;9.594;2023-02-16T11:34:14;11.47;;;6.00;;
17175;SDS011;8703;48.996;9.594;2023-02-16T11:36:49;10.10;;;5.97;;
17175;SDS011;8703;48.996;9.594;2023-02-16T11:39:18;10.23;;;6.30;;
17175;SDS011;8703;48.996;9.594;2023-02-16T11:41:48;10.43;;;6.20;;
17175;SDS011;8703;48.996;9.594;2023-02-16T11:44:20;10.17;;;6.30;;
17175;SDS011;8703;48.996;9.594;2023-02-16T11:46:53;8.47;;;5.73;;
17175;SDS011;8703;48.996;9.594;2023-02-16T11:49:27;9.00;;;5.77;;
17175;SDS011;8703;48.996;9.594;2023-02-16T11:51:57;10.93;;;5.90;;
17175;SDS011;8703;48.996;9.594;2023-02-16T11:54:25;8.60;;;5.57;;
17175;SDS011;8703;48.996;9.594;2023-02-16T11:57:02;8.87;;;5.07;;
17175;SDS011;8703;48.996;9.594;2023-02-16T11:59:34;8.07;;;4.60;;
17175;SDS011;8703;48.996;9.594;2023-02-16T12:02:20;8.23;;;5.13;;
17175;SDS011;8703;48.996;9.594;2023-02-16T12:05:09;9.03;;;4.87;;
17175;SDS011;8703;48.996;9.594;2023-02-16T12:07:48;7.00;;;4.47;;
17175;SDS011;8703;48.996;9.594;2023-02-16T12:10:27;6.93;;;4.50;;
17175;SDS011;8703;48.996;9.594;2023-02-16T12:13:00;7.53;;;4.90;;
17175;SDS011;8703;48.996;9.594;2023-02-16T12:15:34;10.47;;;4.67;;
17175;SDS011;8703;48.996;9.594;2023-02-16T12:18:12;7.27;;;5.00;;
17175;SDS011;8703;48.996;9.594;2023-02-16T12:20:48;8.63;;;4.70;;
17175;SDS011;8703;48.996;9.594;2023-02-16T12:23:24;8.43;;;5.07;;
17175;SDS011;8703;48.996;9.594;2023-02-16T12:26:06;8.17;;;5.20;;
17175;SDS011;8703;48.996;9.594;2023-02-16T12:28:54;8.10;;;5.30;;
17175;SDS011;8703;48.996;9.594;2023-02-16T12:31:30;8.57;;;4.80;;
17175;SDS011;8703;48.996;9.594;2023-02-16T12:34:07;7.97;;;5.17;;
17175;SDS011;8703;48.996;9.594;2023-02-16T12:36:45;7.87;;;5.30;;
17175;SDS011;8703;48.996;9.594;2023-02-16T12:39:20;8.70;;;5.63;;
17175;SDS011;8703;48.996;9.594;2023-02-16T12:42:07;7.53;;;5.60;;
17175;SDS011;8703;48.996;9.594;2023-02-16T12:44:45;9.97;;;6.03;;
17175;SDS011;8703;48.996;9.594;2023-02-16T12:47:16;9.37;;;5.50;;
17175;SDS011;8703;48.996;9.594;2023-02-16T12:49:50;8.70;;;5.80;;
17175;SDS011;8703;48.996;9.594;2023-02-16T12:52:22;10.33;;;5.40;;
17175;SDS011;8703;48.996;9.594;2023-02-16T12:54:56;11.00;;;6.03;;
17175;SDS011;8703;48.996;9.594;2023-02-16T12:57:28;9.30;;;5.73;;
17175;SDS011;8703;48.996;9.594;2023-02-16T12:59:58;9.67;;;6.23;;
17175;SDS011;8703;48.996;9.594;2023-02-16T13:02:30;10.00;;;6.10;;
17175;SDS011;8703;48.996;9.594;2023-02-16T13:05:04;8.97;;;5.83;;
17175;SDS011;8703;48.996;9.594;2023-02-16T13:07:34;8.10;;;5.80;;
17175;SDS011;8703;48.996;9.594;2023-02-16T13:10:11;9.90;;;5.53;;
17175;SDS011;8703;48.996;9.594;2023-02-16T13:12:44;11.53;;;6.27;;
17175;SDS011;8703;48.996;9.594;2023-02-16T13:15:15;9.33;;;6.10;;
17175;SDS011;8703;48.996;9.594;2023-02-16T13:17:46;9.07;;;6.37;;
17175;SDS011;8703;48.996;9.594;2023-02-16T13:20:17;10.70;;;5.90;;
17175;SDS011;8703;48.996;9.594;2023-02-16T13:25:52;8.93;;;6.00;;
17175;SDS011;8703;48.996;9.594;2023-02-16T13:28:32;9.30;;;6.10;;
17175;SDS011;8703;48.996;9.594;2023-02-16T13:31:20;9.97;;;6.20;;
17175;SDS011;8703;48.996;9.594;2023-02-16T13:33:59;8.73;;;5.87;;
17175;SDS011;8703;48.996;9.594;2023-02-16T13:36:49;8.67;;;6.30;;
17175;SDS011;8703;48.996;9.594;2023-02-16T13:39:32;10.17;;;6.30;;
17175;SDS011;8703;48.996;9.594;2023-02-16T13:45:20;8.50;;;5.77;;
17175;SDS011;8703;48.996;9.594;2023-02-16T13:47:49;9.47;;;6.10;;
17175;SDS011;8703;48.996;9.594;2023-02-16T13:50:26;10.53;;;6.30;;
17175;SDS011;8703;48.996;9.594;2023-02-16T13:52:57;9.30;;;6.07;;
17175;SDS011;8703;48.996;9.594;2023-02-16T13:55:37;9.37;;;6.10;;
17175;SDS011;8703;48.996;9.594;2023-02-16T13:58:05;8.20;;;6.20;;
17175;SDS011;8703;48.996;9.594;2023-02-16T14:00:36;9.77;;;6.30;;
17175;SDS011;8703;48.996;9.594;2023-02-16T14:03:10;9.00;;;6.15;;
17175;SDS011;8703;48.996;9.594;2023-02-16T14:05:39;9.30;;;6.28;;
17175;SDS011;8703;48.996;9.594;2023-02-16T14:08:11;8.47;;;6.40;;
17175;SDS011;8703;48.996;9.594;2023-02-16T14:10:54;9.90;;;5.65;;
17175;SDS011;8703;48.996;9.594;2023-02-16T14:13:28;10.25;;;6.40;;
17175;SDS011;8703;48.996;9.594;2023-02-16T14:15:59;9.45;;;6.25;;
17175;SDS011;8703;48.996;9.594;2023-02-16T14:18:31;9.80;;;6.15;;
17175;SDS011;8703;48.996;9.594;2023-02-16T14:21:00;8.73;;;6.50;;
17175;SDS011;8703;48.996;9.594;2023-02-16T14:23:32;9.30;;;6.10;;
17175;SDS011;8703;48.996;9.594;2023-02-16T14:26:00;10.70;;;6.57;;
17175;SDS011;8703;48.996;9.594;2023-02-16T14:31:42;8.03;;;5.93;;
17175;SDS011;8703;48.996;9.594;2023-02-16T14:34:14;10.63;;;6.47;;
17175;SDS011;8703;48.996;9.594;2023-02-16T14:39:48;10.63;;;6.20;;
17175;SDS011;8703;48.996;9.594;2023-02-16T14:42:17;7.40;;;5.60;;
17175;SDS011;8703;48.996;9.594;2023-02-16T14:45:00;8.68;;;6.18;;
17175;SDS011;8703;48.996;9.594;2023-02-16T14:47:38;8.47;;;6.10;;
17175;SDS011;8703;48.996;9.594;2023-02-16T14:50:23;8.53;;;6.03;;
17175;SDS011;8703;48.996;9.594;2023-02-16T14:53:17;8.93;;;5.53;;
17175;SDS011;8703;48.996;9.594;2023-02-16T14:55:57;9.13;;;5.43;;
17175;SDS011;8703;48.996;9.594;2023-02-16T14:58:34;9.90;;;5.80;;
17175;SDS011;8703;48.996;9.594;2023-02-16T15:01:08;9.60;;;6.00;;
17175;SDS011;8703;48.996;9.594;2023-02-16T15:03:39;10.77;;;5.40;;
17175;SDS011;8703;48.996;9.594;2023-02-16T15:06:10;7.10;;;5.03;;
17175;SDS011;8703;48.996;9.594;2023-02-16T15:08:46;9.37;;;4.60;;
17175;SDS011;8703;48.996;9.594;2023-02-16T15:11:22;9.70;;;7.33;;
17175;SDS011;8703;48.996;9.594;2023-02-16T15:13:53;12.00;;;5.60;;
17175;SDS011;8703;48.996;9.594;2023-02-16T15:16:27;10.57;;;4.47;;
17175;SDS011;8703;48.996;9.594;2023-02-16T15:18:54;8.35;;;4.60;;
17175;SDS011;8703;48.996;9.594;2023-02-16T15:21:22;8.38;;;5.45;;
17175;SDS011;8703;48.996;9.594;2023-02-16T15:23:52;9.83;;;5.50;;
17175;SDS011;8703;48.996;9.594;2023-02-16T15:26:23;6.20;;;4.20;;
17175;SDS011;8703;48.996;9.594;2023-02-16T15:28:52;10.85;;;5.50;;
17175;SDS011;8703;48.996;9.594;2023-02-16T15:31:23;8.03;;;4.13;;
17175;SDS011;8703;48.996;9.594;2023-02-16T15:33:56;6.37;;;3.97;;
17175;SDS011;8703;48.996;9.594;2023-02-16T15:36:29;7.03;;;4.20;;
17175;SDS011;8703;48.996;9.594;2023-02-16T15:38:59;8.40;;;4.03;;